KCEY/CEY METAR and TAF weather

Enter ICAO airport designator
Station Type Date Time Source
KCEY METAR 2019/02/23 02:55 UTC NOAA

KCEY 230255Z AUTO 04011KT 10SM OVC005 06/06 A3012 RMK AO1


Station Type Date Time Source
KCEY Decoded METAR 2019/02/23 02:55 UTC NOAA

Station name not available
Feb 22, 2019 - 09:55 PM EST / 2019.02.23 0255 UTC
Wind: from the NE (040 degrees) at 13 MPH (11 KT):0
Visibility: 10 mile(s):0
Sky conditions: overcast
Temperature: 42 F (6 C)
Dew Point: 42 F (6 C)
Relative Humidity: 100%
Pressure (altimeter): 30.12 in. Hg (1019 hPa)
ob: KCEY 230255Z AUTO 04011KT 10SM OVC005 06/06 A3012 RMK AO1
cycle: 3

Station Type Date Time Source
KCEY TAF UTC NOAA

Error!


Example: see airport list